sensor_id;sensor_type;location;lat;lon;timestamp;P1;durP1;ratioP1;P2;durP2;ratioP2
78197;SDS011;67472;51.554;7.812;2023-02-01T00:01:54;32.97;;;12.52;;
78197;SDS011;67472;51.554;7.812;2023-02-01T00:04:23;25.63;;;13.43;;
78197;SDS011;67472;51.554;7.812;2023-02-01T00:08:06;30.98;;;13.82;;
78197;SDS011;67472;51.554;7.812;2023-02-01T00:10:59;26.38;;;12.68;;
78197;SDS011;67472;51.554;7.812;2023-02-01T00:13:54;31.80;;;12.07;;
78197;SDS011;67472;51.554;7.812;2023-02-01T00:16:38;34.60;;;12.07;;
78197;SDS011;67472;51.554;7.812;2023-02-01T00:19:23;24.58;;;12.23;;
78197;SDS011;67472;51.554;7.812;2023-02-01T00:22:07;28.55;;;11.85;;
78197;SDS011;67472;51.554;7.812;2023-02-01T00:24:52;31.17;;;12.52;;
78197;SDS011;67472;51.554;7.812;2023-02-01T00:27:36;30.88;;;12.80;;
78197;SDS011;67472;51.554;7.812;2023-02-01T00:30:21;30.48;;;11.88;;
78197;SDS011;67472;51.554;7.812;2023-02-01T00:33:05;21.17;;;10.68;;
78197;SDS011;67472;51.554;7.812;2023-02-01T00:35:50;27.90;;;10.70;;
78197;SDS011;67472;51.554;7.812;2023-02-01T00:38:36;23.20;;;10.52;;
78197;SDS011;67472;51.554;7.812;2023-02-01T00:41:21;33.72;;;13.23;;
78197;SDS011;67472;51.554;7.812;2023-02-01T00:44:06;32.83;;;11.32;;
78197;SDS011;67472;51.554;7.812;2023-02-01T00:46:51;25.77;;;10.48;;
78197;SDS011;67472;51.554;7.812;2023-02-01T00:49:35;22.50;;;10.52;;
78197;SDS011;67472;51.554;7.812;2023-02-01T00:52:20;23.05;;;10.43;;
78197;SDS011;67472;51.554;7.812;2023-02-01T00:55:04;22.77;;;9.95;;
78197;SDS011;67472;51.554;7.812;2023-02-01T00:57:49;27.65;;;11.55;;
78197;SDS011;67472;51.554;7.812;2023-02-01T01:00:34;25.45;;;8.88;;
78197;SDS011;67472;51.554;7.812;2023-02-01T01:03:19;31.02;;;10.15;;
78197;SDS011;67472;51.554;7.812;2023-02-01T01:06:05;30.25;;;9.68;;
78197;SDS011;67472;51.554;7.812;2023-02-01T01:08:52;24.08;;;8.50;;
78197;SDS011;67472;51.554;7.812;2023-02-01T01:11:38;23.67;;;8.50;;
78197;SDS011;67472;51.554;7.812;2023-02-01T01:14:23;20.25;;;8.25;;
78197;SDS011;67472;51.554;7.812;2023-02-01T01:17:08;21.13;;;7.78;;
78197;SDS011;67472;51.554;7.812;2023-02-01T01:19:53;21.65;;;7.38;;
78197;SDS011;67472;51.554;7.812;2023-02-01T01:22:37;28.52;;;7.30;;
78197;SDS011;67472;51.554;7.812;2023-02-01T01:25:22;19.30;;;6.97;;
78197;SDS011;67472;51.554;7.812;2023-02-01T01:28:06;24.17;;;6.18;;
78197;SDS011;67472;51.554;7.812;2023-02-01T01:30:51;24.55;;;6.20;;
78197;SDS011;67472;51.554;7.812;2023-02-01T01:33:36;17.50;;;5.47;;
78197;SDS011;67472;51.554;7.812;2023-02-01T01:36:21;16.65;;;5.28;;
78197;SDS011;67472;51.554;7.812;2023-02-01T01:39:06;15.65;;;4.95;;
78197;SDS011;67472;51.554;7.812;2023-02-01T01:41:51;19.33;;;5.47;;
78197;SDS011;67472;51.554;7.812;2023-02-01T01:48:13;18.13;;;5.15;;
78197;SDS011;67472;51.554;7.812;2023-02-01T01:51:24;12.30;;;4.65;;
78197;SDS011;67472;51.554;7.812;2023-02-01T01:54:14;20.50;;;5.35;;
78197;SDS011;67472;51.554;7.812;2023-02-01T01:57:09;13.85;;;4.90;;
78197;SDS011;67472;51.554;7.812;2023-02-01T02:00:09;20.52;;;4.63;;
78197;SDS011;67472;51.554;7.812;2023-02-01T02:02:58;13.77;;;4.97;;
78197;SDS011;67472;51.554;7.812;2023-02-01T02:05:50;18.98;;;5.15;;
78197;SDS011;67472;51.554;7.812;2023-02-01T02:08:37;20.48;;;5.28;;
78197;SDS011;67472;51.554;7.812;2023-02-01T02:11:25;18.85;;;5.57;;
78197;SDS011;67472;51.554;7.812;2023-02-01T02:14:11;14.38;;;5.80;;
78197;SDS011;67472;51.554;7.812;2023-02-01T02:27:40;15.43;;;5.25;;
78197;SDS011;67472;51.554;7.812;2023-02-01T02:36:30;19.85;;;5.10;;
78197;SDS011;67472;51.554;7.812;2023-02-01T02:45:27;23.33;;;5.35;;
78197;SDS011;67472;51.554;7.812;2023-02-01T02:48:36;18.13;;;5.45;;
78197;SDS011;67472;51.554;7.812;2023-02-01T02:54:45;18.55;;;5.25;;
78197;SDS011;67472;51.554;7.812;2023-02-01T02:57:37;12.13;;;4.97;;
78197;SDS011;67472;51.554;7.812;2023-02-01T03:00:45;16.55;;;5.78;;
78197;SDS011;67472;51.554;7.812;2023-02-01T03:03:48;18.63;;;6.28;;
78197;SDS011;67472;51.554;7.812;2023-02-01T03:16:40;13.07;;;4.22;;
78197;SDS011;67472;51.554;7.812;2023-02-01T03:19:26;21.73;;;5.53;;
78197;SDS011;67472;51.554;7.812;2023-02-01T03:22:23;20.05;;;5.28;;
78197;SDS011;67472;51.554;7.812;2023-02-01T03:25:12;10.55;;;4.03;;
78197;SDS011;67472;51.554;7.812;2023-02-01T03:28:06;17.67;;;5.50;;
78197;SDS011;67472;51.554;7.812;2023-02-01T03:30:53;19.20;;;4.32;;
78197;SDS011;67472;51.554;7.812;2023-02-01T03:33:38;19.08;;;4.32;;
78197;SDS011;67472;51.554;7.812;2023-02-01T03:36:26;17.83;;;4.13;;
78197;SDS011;67472;51.554;7.812;2023-02-01T03:42:04;16.05;;;5.45;;
78197;SDS011;67472;51.554;7.812;2023-02-01T03:45:17;22.00;;;4.78;;
78197;SDS011;67472;51.554;7.812;2023-02-01T03:48:07;15.70;;;4.00;;
78197;SDS011;67472;51.554;7.812;2023-02-01T03:50:55;15.82;;;4.57;;
78197;SDS011;67472;51.554;7.812;2023-02-01T03:53:44;14.55;;;4.22;;
78197;SDS011;67472;51.554;7.812;2023-02-01T03:56:32;12.80;;;3.55;;
78197;SDS011;67472;51.554;7.812;2023-02-01T03:59:21;14.55;;;3.97;;
78197;SDS011;67472;51.554;7.812;2023-02-01T04:02:05;12.98;;;3.55;;
78197;SDS011;67472;51.554;7.812;2023-02-01T04:04:50;15.93;;;4.38;;
78197;SDS011;67472;51.554;7.812;2023-02-01T04:07:36;11.13;;;3.85;;
78197;SDS011;67472;51.554;7.812;2023-02-01T04:10:21;14.63;;;3.78;;
78197;SDS011;67472;51.554;7.812;2023-02-01T04:13:06;15.63;;;3.95;;
78197;SDS011;67472;51.554;7.812;2023-02-01T04:15:50;14.80;;;4.43;;
78197;SDS011;67472;51.554;7.812;2023-02-01T04:18:34;17.17;;;4.43;;
78197;SDS011;67472;51.554;7.812;2023-02-01T04:21:19;14.77;;;4.35;;
78197;SDS011;67472;51.554;7.812;2023-02-01T04:24:04;17.67;;;3.72;;
78197;SDS011;67472;51.554;7.812;2023-02-01T04:26:48;16.75;;;3.42;;
78197;SDS011;67472;51.554;7.812;2023-02-01T04:29:33;19.58;;;4.18;;
78197;SDS011;67472;51.554;7.812;2023-02-01T04:32:18;17.40;;;4.20;;
78197;SDS011;67472;51.554;7.812;2023-02-01T04:35:03;13.85;;;3.83;;
78197;SDS011;67472;51.554;7.812;2023-02-01T04:37:48;22.17;;;3.85;;
78197;SDS011;67472;51.554;7.812;2023-02-01T04:40:33;15.57;;;4.05;;
78197;SDS011;67472;51.554;7.812;2023-02-01T04:43:17;20.17;;;5.13;;
78197;SDS011;67472;51.554;7.812;2023-02-01T04:46:01;17.83;;;4.20;;
78197;SDS011;67472;51.554;7.812;2023-02-01T04:48:46;20.85;;;3.80;;
78197;SDS011;67472;51.554;7.812;2023-02-01T04:51:31;17.63;;;3.75;;
78197;SDS011;67472;51.554;7.812;2023-02-01T04:54:16;18.38;;;3.53;;
78197;SDS011;67472;51.554;7.812;2023-02-01T04:57:01;16.35;;;4.68;;
78197;SDS011;67472;51.554;7.812;2023-02-01T04:59:45;17.15;;;4.07;;
78197;SDS011;67472;51.554;7.812;2023-02-01T05:02:29;17.52;;;3.90;;
78197;SDS011;67472;51.554;7.812;2023-02-01T05:05:15;20.50;;;4.47;;
78197;SDS011;67472;51.554;7.812;2023-02-01T05:08:00;16.33;;;4.65;;
78197;SDS011;67472;51.554;7.812;2023-02-01T05:10:44;13.48;;;3.83;;
78197;SDS011;67472;51.554;7.812;2023-02-01T05:13:29;15.95;;;3.95;;
78197;SDS011;67472;51.554;7.812;2023-02-01T05:16:33;16.58;;;4.13;;
78197;SDS011;67472;51.554;7.812;2023-02-01T05:19:43;17.23;;;4.47;;
78197;SDS011;67472;51.554;7.812;2023-02-01T05:23:01;20.90;;;4.20;;
78197;SDS011;67472;51.554;7.812;2023-02-01T05:26:07;16.55;;;4.78;;
78197;SDS011;67472;51.554;7.812;2023-02-01T05:29:13;19.20;;;4.72;;
78197;SDS011;67472;51.554;7.812;2023-02-01T05:32:22;17.65;;;4.43;;
78197;SDS011;67472;51.554;7.812;2023-02-01T05:35:06;18.13;;;5.38;;
78197;SDS011;67472;51.554;7.812;2023-02-01T05:37:51;18.05;;;4.28;;
78197;SDS011;67472;51.554;7.812;2023-02-01T05:40:36;19.85;;;6.15;;
78197;SDS011;67472;51.554;7.812;2023-02-01T05:43:20;18.02;;;4.40;;
78197;SDS011;67472;51.554;7.812;2023-02-01T05:46:05;21.63;;;4.40;;
78197;SDS011;67472;51.554;7.812;2023-02-01T05:48:50;21.30;;;4.93;;
78197;SDS011;67472;51.554;7.812;2023-02-01T05:51:34;16.25;;;4.25;;
78197;SDS011;67472;51.554;7.812;2023-02-01T05:54:18;16.10;;;5.47;;
78197;SDS011;67472;51.554;7.812;2023-02-01T05:57:03;19.30;;;4.18;;
78197;SDS011;67472;51.554;7.812;2023-02-01T05:59:47;20.48;;;5.95;;
78197;SDS011;67472;51.554;7.812;2023-02-01T06:02:32;15.43;;;4.78;;
78197;SDS011;67472;51.554;7.812;2023-02-01T06:05:17;21.58;;;5.05;;
78197;SDS011;67472;51.554;7.812;2023-02-01T06:08:01;13.27;;;4.10;;
78197;SDS011;67472;51.554;7.812;2023-02-01T06:10:45;19.88;;;4.65;;
78197;SDS011;67472;51.554;7.812;2023-02-01T06:13:30;19.23;;;5.30;;
78197;SDS011;67472;51.554;7.812;2023-02-01T06:16:15;16.83;;;4.72;;
78197;SDS011;67472;51.554;7.812;2023-02-01T06:19:00;20.67;;;4.82;;
78197;SDS011;67472;51.554;7.812;2023-02-01T06:21:44;18.20;;;4.57;;
78197;SDS011;67472;51.554;7.812;2023-02-01T06:24:29;19.85;;;4.50;;
78197;SDS011;67472;51.554;7.812;2023-02-01T06:27:14;22.85;;;5.07;;
78197;SDS011;67472;51.554;7.812;2023-02-01T06:29:59;23.48;;;5.00;;
78197;SDS011;67472;51.554;7.812;2023-02-01T06:32:43;19.48;;;4.40;;
78197;SDS011;67472;51.554;7.812;2023-02-01T06:35:28;14.43;;;4.63;;
78197;SDS011;67472;51.554;7.812;2023-02-01T06:38:12;16.70;;;4.72;;
78197;SDS011;67472;51.554;7.812;2023-02-01T06:40:57;19.65;;;5.18;;
78197;SDS011;67472;51.554;7.812;2023-02-01T06:43:42;17.60;;;5.68;;
78197;SDS011;67472;51.554;7.812;2023-02-01T06:46:27;21.92;;;4.95;;
78197;SDS011;67472;51.554;7.812;2023-02-01T06:49:11;16.48;;;4.65;;
78197;SDS011;67472;51.554;7.812;2023-02-01T06:51:56;24.52;;;4.75;;
78197;SDS011;67472;51.554;7.812;2023-02-01T06:54:46;11.75;;;3.97;;
78197;SDS011;67472;51.554;7.812;2023-02-01T06:57:30;17.23;;;6.30;;
78197;SDS011;67472;51.554;7.812;2023-02-01T07:00:16;24.20;;;6.10;;
78197;SDS011;67472;51.554;7.812;2023-02-01T07:03:02;17.15;;;5.20;;
78197;SDS011;67472;51.554;7.812;2023-02-01T07:05:46;18.15;;;4.97;;
78197;SDS011;67472;51.554;7.812;2023-02-01T07:08:31;17.08;;;5.05;;
78197;SDS011;67472;51.554;7.812;2023-02-01T07:11:18;24.83;;;6.38;;
78197;SDS011;67472;51.554;7.812;2023-02-01T07:14:03;22.33;;;5.47;;
78197;SDS011;67472;51.554;7.812;2023-02-01T07:16:47;16.40;;;4.78;;
78197;SDS011;67472;51.554;7.812;2023-02-01T07:19:32;20.95;;;5.97;;
78197;SDS011;67472;51.554;7.812;2023-02-01T07:22:17;15.23;;;4.85;;
78197;SDS011;67472;51.554;7.812;2023-02-01T07:25:01;24.70;;;5.35;;
78197;SDS011;67472;51.554;7.812;2023-02-01T07:27:45;17.17;;;7.18;;
78197;SDS011;67472;51.554;7.812;2023-02-01T07:30:30;21.05;;;5.15;;
78197;SDS011;67472;51.554;7.812;2023-02-01T07:33:15;21.02;;;5.93;;
78197;SDS011;67472;51.554;7.812;2023-02-01T07:36:00;18.08;;;5.38;;
78197;SDS011;67472;51.554;7.812;2023-02-01T07:38:48;18.77;;;5.70;;
78197;SDS011;67472;51.554;7.812;2023-02-01T07:41:32;16.73;;;5.90;;
78197;SDS011;67472;51.554;7.812;2023-02-01T07:44:17;21.08;;;5.70;;
78197;SDS011;67472;51.554;7.812;2023-02-01T07:47:06;19.58;;;4.78;;
78197;SDS011;67472;51.554;7.812;2023-02-01T07:49:50;19.48;;;5.07;;
78197;SDS011;67472;51.554;7.812;2023-02-01T07:52:35;20.02;;;6.20;;
78197;SDS011;67472;51.554;7.812;2023-02-01T07:55:19;16.90;;;5.28;;
78197;SDS011;67472;51.554;7.812;2023-02-01T07:58:04;20.98;;;5.13;;
78197;SDS011;67472;51.554;7.812;2023-02-01T08:00:48;16.45;;;5.45;;
78197;SDS011;67472;51.554;7.812;2023-02-01T08:06:37;22.50;;;6.20;;
78197;SDS011;67472;51.554;7.812;2023-02-01T08:09:23;19.02;;;4.63;;
78197;SDS011;67472;51.554;7.812;2023-02-01T08:12:07;17.90;;;5.25;;
78197;SDS011;67472;51.554;7.812;2023-02-01T08:14:52;15.00;;;5.07;;
78197;SDS011;67472;51.554;7.812;2023-02-01T08:17:37;19.33;;;5.55;;
78197;SDS011;67472;51.554;7.812;2023-02-01T08:20:22;23.73;;;6.00;;
78197;SDS011;67472;51.554;7.812;2023-02-01T08:23:10;19.13;;;6.30;;
78197;SDS011;67472;51.554;7.812;2023-02-01T08:25:55;22.98;;;6.43;;
78197;SDS011;67472;51.554;7.812;2023-02-01T08:28:50;19.17;;;6.75;;
78197;SDS011;67472;51.554;7.812;2023-02-01T08:31:44;18.80;;;6.57;;
78197;SDS011;67472;51.554;7.812;2023-02-01T08:34:29;18.25;;;6.47;;
78197;SDS011;67472;51.554;7.812;2023-02-01T08:37:13;21.10;;;7.75;;
78197;SDS011;67472;51.554;7.812;2023-02-01T08:39:58;27.73;;;6.65;;
78197;SDS011;67472;51.554;7.812;2023-02-01T08:42:42;21.23;;;6.25;;
78197;SDS011;67472;51.554;7.812;2023-02-01T08:45:35;18.95;;;6.28;;
78197;SDS011;67472;51.554;7.812;2023-02-01T08:48:20;15.38;;;7.15;;
78197;SDS011;67472;51.554;7.812;2023-02-01T08:51:05;19.00;;;7.90;;
78197;SDS011;67472;51.554;7.812;2023-02-01T08:53:52;24.33;;;6.88;;
78197;SDS011;67472;51.554;7.812;2023-02-01T08:56:36;22.88;;;7.85;;
78197;SDS011;67472;51.554;7.812;2023-02-01T08:59:21;24.33;;;6.70;;
78197;SDS011;67472;51.554;7.812;2023-02-01T09:02:06;24.70;;;6.75;;
78197;SDS011;67472;51.554;7.812;2023-02-01T09:04:52;26.67;;;7.22;;
78197;SDS011;67472;51.554;7.812;2023-02-01T09:07:37;19.48;;;6.47;;
78197;SDS011;67472;51.554;7.812;2023-02-01T09:10:21;17.70;;;6.88;;
78197;SDS011;67472;51.554;7.812;2023-02-01T09:13:05;19.50;;;6.40;;
78197;SDS011;67472;51.554;7.812;2023-02-01T09:15:51;15.35;;;6.00;;
78197;SDS011;67472;51.554;7.812;2023-02-01T09:18:35;20.80;;;6.68;;
78197;SDS011;67472;51.554;7.812;2023-02-01T09:21:19;17.48;;;6.40;;
78197;SDS011;67472;51.554;7.812;2023-02-01T09:24:04;22.20;;;7.40;;
78197;SDS011;67472;51.554;7.812;2023-02-01T09:26:49;26.73;;;7.00;;
78197;SDS011;67472;51.554;7.812;2023-02-01T09:29:33;24.92;;;6.75;;
78197;SDS011;67472;51.554;7.812;2023-02-01T09:32:21;18.95;;;7.70;;
78197;SDS011;67472;51.554;7.812;2023-02-01T09:35:06;21.73;;;7.22;;
78197;SDS011;67472;51.554;7.812;2023-02-01T09:37:54;25.05;;;7.88;;
78197;SDS011;67472;51.554;7.812;2023-02-01T09:40:40;18.45;;;6.82;;
78197;SDS011;67472;51.554;7.812;2023-02-01T09:46:37;12.30;;;6.75;;
78197;SDS011;67472;51.554;7.812;2023-02-01T09:49:23;23.10;;;6.53;;
78197;SDS011;67472;51.554;7.812;2023-02-01T09:52:16;17.65;;;6.40;;
78197;SDS011;67472;51.554;7.812;2023-02-01T09:55:04;18.80;;;6.18;;
78197;SDS011;67472;51.554;7.812;2023-02-01T09:58:01;29.17;;;9.07;;
78197;SDS011;67472;51.554;7.812;2023-02-01T10:00:51;17.05;;;5.70;;
78197;SDS011;67472;51.554;7.812;2023-02-01T10:03:38;21.38;;;6.60;;
78197;SDS011;67472;51.554;7.812;2023-02-01T10:09:33;23.77;;;7.97;;
78197;SDS011;67472;51.554;7.812;2023-02-01T10:18:44;21.20;;;6.63;;
78197;SDS011;67472;51.554;7.812;2023-02-01T10:27:33;23.20;;;8.98;;
78197;SDS011;67472;51.554;7.812;2023-02-01T10:30:25;27.58;;;8.00;;
78197;SDS011;67472;51.554;7.812;2023-02-01T10:33:26;29.15;;;8.00;;
78197;SDS011;67472;51.554;7.812;2023-02-01T10:36:21;20.38;;;7.07;;
78197;SDS011;67472;51.554;7.812;2023-02-01T10:39:12;17.58;;;6.30;;
78197;SDS011;67472;51.554;7.812;2023-02-01T10:41:58;21.45;;;7.25;;
78197;SDS011;67472;51.554;7.812;2023-02-01T10:44:43;12.88;;;5.90;;
78197;SDS011;67472;51.554;7.812;2023-02-01T10:47:29;13.77;;;6.18;;
78197;SDS011;67472;51.554;7.812;2023-02-01T10:56:13;20.63;;;7.00;;
78197;SDS011;67472;51.554;7.812;2023-02-01T10:59:02;20.30;;;6.70;;
78197;SDS011;67472;51.554;7.812;2023-02-01T11:02:00;22.27;;;8.07;;
78197;SDS011;67472;51.554;7.812;2023-02-01T11:05:05;27.95;;;6.93;;
78197;SDS011;67472;51.554;7.812;2023-02-01T11:07:54;19.40;;;7.05;;
78197;SDS011;67472;51.554;7.812;2023-02-01T11:10:40;20.60;;;6.03;;
78197;SDS011;67472;51.554;7.812;2023-02-01T11:13:32;20.13;;;6.07;;
78197;SDS011;67472;51.554;7.812;2023-02-01T11:16:21;17.83;;;6.20;;
78197;SDS011;67472;51.554;7.812;2023-02-01T11:19:15;20.48;;;6.00;;
78197;SDS011;67472;51.554;7.812;2023-02-01T11:22:01;19.08;;;6.95;;
78197;SDS011;67472;51.554;7.812;2023-02-01T11:24:45;12.13;;;5.03;;
78197;SDS011;67472;51.554;7.812;2023-02-01T11:27:30;20.98;;;6.47;;
78197;SDS011;67472;51.554;7.812;2023-02-01T11:30:18;18.45;;;5.50;;
78197;SDS011;67472;51.554;7.812;2023-02-01T11:33:29;18.25;;;5.68;;
78197;SDS011;67472;51.554;7.812;2023-02-01T11:36:18;19.33;;;6.18;;
78197;SDS011;67472;51.554;7.812;2023-02-01T11:42:01;15.50;;;5.85;;
78197;SDS011;67472;51.554;7.812;2023-02-01T11:44:48;20.15;;;6.43;;
78197;SDS011;67472;51.554;7.812;2023-02-01T11:47:40;18.67;;;7.03;;
78197;SDS011;67472;51.554;7.812;2023-02-01T11:50:30;16.33;;;5.70;;
78197;SDS011;67472;51.554;7.812;2023-02-01T11:53:35;22.05;;;6.22;;
78197;SDS011;67472;51.554;7.812;2023-02-01T12:08:50;25.05;;;6.40;;
78197;SDS011;67472;51.554;7.812;2023-02-01T12:23:49;26.20;;;6.57;;
78197;SDS011;67472;51.554;7.812;2023-02-01T12:44:59;18.40;;;6.13;;
78197;SDS011;67472;51.554;7.812;2023-02-01T12:47:55;17.13;;;5.70;;
78197;SDS011;67472;51.554;7.812;2023-02-01T12:50:49;18.23;;;6.35;;
78197;SDS011;67472;51.554;7.812;2023-02-01T12:53:47;16.35;;;6.03;;
78197;SDS011;67472;51.554;7.812;2023-02-01T12:59:54;21.92;;;6.05;;
78197;SDS011;67472;51.554;7.812;2023-02-01T13:11:47;26.30;;;6.28;;
78197;SDS011;67472;51.554;7.812;2023-02-01T13:17:31;24.02;;;6.55;;
78197;SDS011;67472;51.554;7.812;2023-02-01T13:23:45;23.00;;;7.25;;
78197;SDS011;67472;51.554;7.812;2023-02-01T13:26:32;21.58;;;6.88;;
78197;SDS011;67472;51.554;7.812;2023-02-01T13:29:17;23.08;;;6.65;;
78197;SDS011;67472;51.554;7.812;2023-02-01T13:35:29;18.77;;;6.68;;
78197;SDS011;67472;51.554;7.812;2023-02-01T13:38:58;17.63;;;5.85;;
78197;SDS011;67472;51.554;7.812;2023-02-01T13:41:51;17.63;;;6.55;;
78197;SDS011;67472;51.554;7.812;2023-02-01T13:44:43;17.73;;;6.03;;
78197;SDS011;67472;51.554;7.812;2023-02-01T13:47:40;21.70;;;5.70;;
78197;SDS011;67472;51.554;7.812;2023-02-01T13:50:29;19.10;;;6.72;;
78197;SDS011;67472;51.554;7.812;2023-02-01T13:53:18;18.17;;;6.60;;
78197;SDS011;67472;51.554;7.812;2023-02-01T13:56:16;16.75;;;5.13;;
78197;SDS011;67472;51.554;7.812;2023-02-01T13:59:09;24.77;;;5.47;;
78197;SDS011;67472;51.554;7.812;2023-02-01T14:03:08;15.15;;;5.82;;
78197;SDS011;67472;51.554;7.812;2023-02-01T14:08:39;20.52;;;5.18;;
78197;SDS011;67472;51.554;7.812;2023-02-01T14:11:31;20.27;;;5.43;;
78197;SDS011;67472;51.554;7.812;2023-02-01T14:20:31;16.92;;;4.25;;
78197;SDS011;67472;51.554;7.812;2023-02-01T14:23:40;17.17;;;4.78;;
78197;SDS011;67472;51.554;7.812;2023-02-01T14:26:51;12.90;;;4.13;;
78197;SDS011;67472;51.554;7.812;2023-02-01T14:29:38;12.45;;;3.45;;
78197;SDS011;67472;51.554;7.812;2023-02-01T14:32:36;18.52;;;4.35;;
78197;SDS011;67472;51.554;7.812;2023-02-01T14:35:26;18.52;;;5.22;;
78197;SDS011;67472;51.554;7.812;2023-02-01T14:38:11;23.38;;;6.10;;
78197;SDS011;67472;51.554;7.812;2023-02-01T14:40:55;13.70;;;4.63;;
78197;SDS011;67472;51.554;7.812;2023-02-01T14:53:35;14.80;;;5.32;;
78197;SDS011;67472;51.554;7.812;2023-02-01T14:56:08;17.15;;;5.13;;
78197;SDS011;67472;51.554;7.812;2023-02-01T15:01:55;15.50;;;4.15;;
78197;SDS011;67472;51.554;7.812;2023-02-01T15:04:42;16.83;;;3.95;;
78197;SDS011;67472;51.554;7.812;2023-02-01T15:07:27;18.33;;;4.10;;
78197;SDS011;67472;51.554;7.812;2023-02-01T15:10:12;13.23;;;4.05;;
78197;SDS011;67472;51.554;7.812;2023-02-01T15:12:57;13.18;;;5.20;;
78197;SDS011;67472;51.554;7.812;2023-02-01T15:15:42;18.67;;;4.70;;
78197;SDS011;67472;51.554;7.812;2023-02-01T15:18:27;19.15;;;5.07;;
78197;SDS011;67472;51.554;7.812;2023-02-01T15:21:16;14.80;;;5.20;;
78197;SDS011;67472;51.554;7.812;2023-02-01T15:27:18;17.02;;;4.53;;
78197;SDS011;67472;51.554;7.812;2023-02-01T15:30:06;20.60;;;4.50;;
78197;SDS011;67472;51.554;7.812;2023-02-01T15:33:03;19.63;;;5.13;;
78197;SDS011;67472;51.554;7.812;2023-02-01T15:35:52;17.15;;;4.28;;
78197;SDS011;67472;51.554;7.812;2023-02-01T15:38:40;15.35;;;4.38;;
78197;SDS011;67472;51.554;7.812;2023-02-01T15:41:29;18.27;;;5.18;;
78197;SDS011;67472;51.554;7.812;2023-02-01T15:44:19;14.52;;;4.10;;
78197;SDS011;67472;51.554;7.812;2023-02-01T15:47:25;13.40;;;3.67;;
78197;SDS011;67472;51.554;7.812;2023-02-01T15:50:12;12.52;;;3.80;;
78197;SDS011;67472;51.554;7.812;2023-02-01T15:52:59;16.25;;;3.92;;
78197;SDS011;67472;51.554;7.812;2023-02-01T15:55:43;16.90;;;4.47;;
78197;SDS011;67472;51.554;7.812;2023-02-01T15:58:29;20.35;;;4.75;;
78197;SDS011;67472;51.554;7.812;2023-02-01T16:01:15;11.35;;;3.90;;
78197;SDS011;67472;51.554;7.812;2023-02-01T16:06:54;15.50;;;4.15;;
78197;SDS011;67472;51.554;7.812;2023-02-01T16:09:57;15.20;;;4.40;;
78197;SDS011;67472;51.554;7.812;2023-02-01T16:12:50;13.20;;;3.67;;
78197;SDS011;67472;51.554;7.812;2023-02-01T16:15:36;17.48;;;5.05;;
78197;SDS011;67472;51.554;7.812;2023-02-01T16:18:21;16.90;;;4.70;;
78197;SDS011;67472;51.554;7.812;2023-02-01T16:21:06;17.98;;;5.47;;
78197;SDS011;67472;51.554;7.812;2023-02-01T16:23:52;17.30;;;5.93;;
78197;SDS011;67472;51.554;7.812;2023-02-01T16:26:37;20.85;;;4.88;;
78197;SDS011;67472;51.554;7.812;2023-02-01T16:29:22;16.67;;;5.00;;
78197;SDS011;67472;51.554;7.812;2023-02-01T16:32:11;19.83;;;5.30;;
78197;SDS011;67472;51.554;7.812;2023-02-01T16:35:01;16.10;;;4.13;;
78197;SDS011;67472;51.554;7.812;2023-02-01T16:37:45;21.05;;;4.65;;
78197;SDS011;67472;51.554;7.812;2023-02-01T16:40:30;15.20;;;5.38;;
78197;SDS011;67472;51.554;7.812;2023-02-01T16:43:16;16.15;;;5.10;;
78197;SDS011;67472;51.554;7.812;2023-02-01T16:46:01;20.00;;;5.40;;
78197;SDS011;67472;51.554;7.812;2023-02-01T16:48:50;18.33;;;5.88;;
78197;SDS011;67472;51.554;7.812;2023-02-01T16:51:37;17.60;;;5.55;;
78197;SDS011;67472;51.554;7.812;2023-02-01T16:54:24;19.95;;;5.25;;
78197;SDS011;67472;51.554;7.812;2023-02-01T16:57:14;13.93;;;4.45;;
78197;SDS011;67472;51.554;7.812;2023-02-01T17:00:02;16.50;;;5.20;;
78197;SDS011;67472;51.554;7.812;2023-02-01T17:02:48;18.90;;;5.13;;
78197;SDS011;67472;51.554;7.812;2023-02-01T17:05:33;12.63;;;3.92;;
78197;SDS011;67472;51.554;7.812;2023-02-01T17:08:22;13.15;;;3.70;;
78197;SDS011;67472;51.554;7.812;2023-02-01T17:11:15;13.98;;;3.95;;
78197;SDS011;67472;51.554;7.812;2023-02-01T17:14:13;14.75;;;5.30;;
78197;SDS011;67472;51.554;7.812;2023-02-01T17:17:05;16.63;;;5.90;;
78197;SDS011;67472;51.554;7.812;2023-02-01T17:19:50;18.77;;;6.05;;
78197;SDS011;67472;51.554;7.812;2023-02-01T17:22:36;8.60;;;4.32;;
78197;SDS011;67472;51.554;7.812;2023-02-01T17:25:21;8.20;;;3.63;;
78197;SDS011;67472;51.554;7.812;2023-02-01T17:28:06;14.02;;;3.70;;
78197;SDS011;67472;51.554;7.812;2023-02-01T17:30:51;6.97;;;3.63;;
78197;SDS011;67472;51.554;7.812;2023-02-01T17:33:35;8.63;;;3.47;;
78197;SDS011;67472;51.554;7.812;2023-02-01T17:36:23;13.88;;;4.20;;
78197;SDS011;67472;51.554;7.812;2023-02-01T17:39:08;8.07;;;4.00;;
78197;SDS011;67472;51.554;7.812;2023-02-01T17:41:53;9.02;;;3.85;;
78197;SDS011;67472;51.554;7.812;2023-02-01T17:44:37;7.85;;;3.53;;
78197;SDS011;67472;51.554;7.812;2023-02-01T17:47:22;5.20;;;3.47;;
78197;SDS011;67472;51.554;7.812;2023-02-01T17:50:07;7.93;;;4.00;;
78197;SDS011;67472;51.554;7.812;2023-02-01T17:52:51;10.55;;;5.32;;
78197;SDS011;67472;51.554;7.812;2023-02-01T17:55:36;7.20;;;3.67;;
78197;SDS011;67472;51.554;7.812;2023-02-01T17:58:23;8.45;;;4.25;;
78197;SDS011;67472;51.554;7.812;2023-02-01T18:01:13;10.20;;;4.95;;
78197;SDS011;67472;51.554;7.812;2023-02-01T18:04:02;14.00;;;6.13;;
78197;SDS011;67472;51.554;7.812;2023-02-01T18:06:46;7.85;;;4.93;;
78197;SDS011;67472;51.554;7.812;2023-02-01T18:09:31;11.50;;;4.75;;
78197;SDS011;67472;51.554;7.812;2023-02-01T18:12:17;10.05;;;4.30;;
78197;SDS011;67472;51.554;7.812;2023-02-01T18:15:17;7.68;;;4.20;;
78197;SDS011;67472;51.554;7.812;2023-02-01T18:18:03;13.63;;;4.53;;
78197;SDS011;67472;51.554;7.812;2023-02-01T18:20:48;6.97;;;4.03;;
78197;SDS011;67472;51.554;7.812;2023-02-01T18:23:32;12.05;;;4.00;;
78197;SDS011;67472;51.554;7.812;2023-02-01T18:26:17;12.13;;;4.40;;
78197;SDS011;67472;51.554;7.812;2023-02-01T18:29:02;15.90;;;5.72;;
78197;SDS011;67472;51.554;7.812;2023-02-01T18:31:47;12.48;;;4.90;;
78197;SDS011;67472;51.554;7.812;2023-02-01T18:34:34;14.73;;;4.90;;
78197;SDS011;67472;51.554;7.812;2023-02-01T18:37:19;13.73;;;4.35;;
78197;SDS011;67472;51.554;7.812;2023-02-01T18:40:03;5.18;;;2.70;;
78197;SDS011;67472;51.554;7.812;2023-02-01T18:42:48;7.43;;;3.83;;
78197;SDS011;67472;51.554;7.812;2023-02-01T18:45:34;9.18;;;4.30;;
78197;SDS011;67472;51.554;7.812;2023-02-01T18:48:20;10.63;;;3.28;;
78197;SDS011;67472;51.554;7.812;2023-02-01T18:51:07;10.73;;;2.80;;
78197;SDS011;67472;51.554;7.812;2023-02-01T18:53:54;7.70;;;3.72;;
78197;SDS011;67472;51.554;7.812;2023-02-01T18:56:38;8.23;;;3.58;;
78197;SDS011;67472;51.554;7.812;2023-02-01T18:59:23;5.68;;;3.65;;
78197;SDS011;67472;51.554;7.812;2023-02-01T19:02:11;7.53;;;3.20;;
78197;SDS011;67472;51.554;7.812;2023-02-01T19:04:55;6.10;;;2.88;;
78197;SDS011;67472;51.554;7.812;2023-02-01T19:07:41;5.88;;;2.60;;
78197;SDS011;67472;51.554;7.812;2023-02-01T19:10:26;5.57;;;1.95;;
78197;SDS011;67472;51.554;7.812;2023-02-01T19:13:11;2.78;;;1.42;;
78197;SDS011;67472;51.554;7.812;2023-02-01T19:15:56;7.35;;;1.88;;
78197;SDS011;67472;51.554;7.812;2023-02-01T19:18:41;3.42;;;1.75;;
78197;SDS011;67472;51.554;7.812;2023-02-01T19:21:25;5.72;;;2.20;;
78197;SDS011;67472;51.554;7.812;2023-02-01T19:24:10;4.93;;;2.10;;
78197;SDS011;67472;51.554;7.812;2023-02-01T19:26:54;6.85;;;3.45;;